createdAt,value
2023-05-23T00:02:01.494Z,98443.16
2023-05-23T00:12:06.448Z,98431.90
2023-05-23T00:22:10.523Z,98424.67
2023-05-23T00:32:28.582Z,98413.55
2023-05-23T00:42:32.004Z,98414.25
2023-05-23T00:52:36.154Z,98418.59
2023-05-23T01:02:41.067Z,98416.98
2023-05-23T01:12:46.448Z,98411.29
2023-05-23T01:23:00.335Z,98416.27
2023-05-23T01:33:05.211Z,98417.02
2023-05-23T01:43:09.131Z,98402.64
2023-05-23T01:53:13.786Z,98393.56
2023-05-23T02:03:18.862Z,98395.83
2023-05-23T02:13:23.121Z,98393.99
2023-05-23T02:23:26.961Z,98396.80
2023-05-23T02:33:31.077Z,98392.11
2023-05-23T02:43:34.922Z,98392.02
2023-05-23T02:53:39.185Z,98383.57
2023-05-23T03:03:43.172Z,98372.06
2023-05-23T03:13:47.028Z,98369.05
2023-05-23T03:23:50.745Z,98357.66
2023-05-23T03:33:54.431Z,98345.80
2023-05-23T03:43:58.173Z,98333.73
2023-05-23T03:54:01.958Z,98322.19
2023-05-23T04:04:05.873Z,98313.88
2023-05-23T04:14:10.622Z,98309.05
2023-05-23T04:24:14.726Z,98316.54
2023-05-23T04:34:21.730Z,98311.19
2023-05-23T04:54:29.250Z,98308.69
2023-05-23T05:04:36.685Z,98303.50
2023-05-23T05:14:40.974Z,98298.05
2023-05-23T05:24:44.522Z,98290.17
2023-05-23T05:34:49.575Z,98284.79
2023-05-23T05:44:53.767Z,98286.29
2023-05-23T05:54:57.163Z,98283.34
2023-05-23T06:05:00.778Z,98276.90
2023-05-23T06:15:03.568Z,98270.14
2023-05-23T06:25:08.769Z,98262.49
2023-05-23T06:35:12.340Z,98256.90
2023-05-23T06:45:27.255Z,98253.76
2023-05-23T06:55:33.368Z,98249.27
2023-05-23T07:05:40.936Z,98241.84
2023-05-23T07:15:45.541Z,98238.79
2023-05-23T07:26:01.007Z,98236.02
2023-05-23T07:36:06.550Z,98228.86
2023-05-23T07:46:10.509Z,98220.02
2023-05-23T07:56:14.311Z,98219.19
2023-05-23T08:06:21.669Z,98216.34
2023-05-23T08:16:24.595Z,98214.46
2023-05-23T08:26:34.218Z,98212.40
2023-05-23T08:36:39.406Z,98203.23
2023-05-23T08:46:44.454Z,98201.81
2023-05-23T08:56:51.528Z,98203.90
2023-05-23T09:06:55.555Z,98199.08
2023-05-23T09:17:03.866Z,98187.97
2023-05-23T09:27:08.732Z,98193.38
2023-05-23T09:37:17.836Z,98185.45
2023-05-23T09:47:21.630Z,98176.77
2023-05-23T09:57:27.113Z,98173.21
2023-05-23T10:07:31.174Z,98168.73
2023-05-23T10:27:54.190Z,98146.23
2023-05-23T10:38:01.565Z,98143.98
2023-05-23T10:48:03.783Z,98140.25
2023-05-23T10:58:10.176Z,98145.92
2023-05-23T11:08:15.672Z,98141.06
2023-05-23T11:18:22.118Z,98137.98
2023-05-23T11:28:26.160Z,98137.29
2023-05-23T11:38:31.010Z,98136.24
2023-05-23T11:48:34.670Z,98133.51
2023-05-23T11:58:39.696Z,98118.74
2023-05-23T12:08:43.553Z,98114.04
2023-05-23T12:18:49.621Z,98111.05
2023-05-23T12:28:53.233Z,98104.69
2023-05-23T12:39:03.861Z,98099.92
2023-05-23T12:49:08.296Z,98092.08
2023-05-23T12:59:12.310Z,98079.13
2023-05-23T13:09:16.463Z,98069.04
2023-05-23T13:19:20.137Z,98063.25
2023-05-23T13:29:24.163Z,98080.92
2023-05-23T13:39:28.212Z,98091.66
2023-05-23T13:49:32.078Z,98094.41
2023-05-23T13:59:36.313Z,98095.10
2023-05-23T14:09:40.213Z,98095.71
2023-05-23T14:19:48.432Z,98101.84
2023-05-23T14:29:52.864Z,98111.37
2023-05-23T14:39:55.876Z,98119.20
2023-05-23T15:00:03.597Z,98105.52
2023-05-23T15:10:08.182Z,98096.55
2023-05-23T15:20:12.786Z,98097.61
2023-05-23T15:30:20.244Z,98094.59
2023-05-23T15:40:23.426Z,98098.95
2023-05-23T15:50:31.325Z,98099.47
2023-05-23T16:00:35.214Z,98089.48
2023-05-23T16:10:38.857Z,98074.00
2023-05-23T16:20:42.531Z,98076.12
2023-05-23T16:40:49.904Z,98095.17
2023-05-23T16:50:59.970Z,98096.40
2023-05-23T17:01:03.949Z,98102.05
2023-05-23T17:11:08.029Z,98101.54
2023-05-23T17:21:14.596Z,98105.09
2023-05-23T17:31:18.657Z,98107.38
2023-05-23T17:41:22.620Z,98110.37
2023-05-23T17:51:31.353Z,98115.58
2023-05-23T18:01:35.868Z,98123.10
2023-05-23T18:21:43.114Z,98131.23
2023-05-23T18:31:47.243Z,98139.61
2023-05-23T18:41:50.897Z,98154.04
2023-05-23T18:51:54.805Z,98175.06
2023-05-23T19:01:58.998Z,98180.80
2023-05-23T19:12:03.076Z,98180.84
2023-05-23T19:22:07.136Z,98181.80
2023-05-23T19:32:15.307Z,98182.73
2023-05-23T19:42:23.726Z,98187.73
2023-05-23T19:52:27.363Z,98189.48
2023-05-23T20:02:31.141Z,98190.05
2023-05-23T20:12:35.344Z,98193.98
2023-05-23T20:22:38.508Z,98201.01
2023-05-23T20:32:44.993Z,98203.98
2023-05-23T20:42:49.353Z,98207.54
2023-05-23T20:52:54.435Z,98208.95
2023-05-23T21:02:58.149Z,98215.23
2023-05-23T21:13:02.270Z,98225.31
2023-05-23T21:23:05.937Z,98230.44
2023-05-23T21:33:09.680Z,98235.75
2023-05-23T21:43:14.448Z,98244.02
2023-05-23T21:53:18.147Z,98251.86
2023-05-23T22:03:21.841Z,98250.02
2023-05-23T22:13:27.980Z,98253.27
2023-05-23T22:23:31.495Z,98250.24
2023-05-23T22:33:34.894Z,98257.92
2023-05-23T22:43:38.429Z,98262.41
2023-05-23T22:53:42.752Z,98256.86
2023-05-23T23:04:00.808Z,98262.84
2023-05-23T23:14:03.952Z,98263.34
2023-05-23T23:24:07.921Z,98256.69
2023-05-23T23:34:11.515Z,98251.63
2023-05-23T23:44:15.435Z,98248.23
2023-05-23T23:54:21.706Z,98249.30
